sensor_id;sensor_type;location;lat;lon;timestamp;temperature;humidity
65478;SHT31;53678;39.642;22.430;2023-04-01T00:02:18;17.23;54.85
65478;SHT31;53678;39.642;22.430;2023-04-01T00:04:44;17.21;54.96
65478;SHT31;53678;39.642;22.430;2023-04-01T00:07:10;17.21;55.09
65478;SHT31;53678;39.642;22.430;2023-04-01T00:09:36;17.26;55.02
65478;SHT31;53678;39.642;22.430;2023-04-01T00:12:03;17.23;54.84
65478;SHT31;53678;39.642;22.430;2023-04-01T00:14:28;17.23;55.09
65478;SHT31;53678;39.642;22.430;2023-04-01T00:16:55;17.21;55.15
65478;SHT31;53678;39.642;22.430;2023-04-01T00:19:21;17.29;54.69
65478;SHT31;53678;39.642;22.430;2023-04-01T00:21:47;17.47;54.41
65478;SHT31;53678;39.642;22.430;2023-04-01T00:24:13;17.36;54.48
65478;SHT31;53678;39.642;22.430;2023-04-01T00:26:39;17.36;54.55
65478;SHT31;53678;39.642;22.430;2023-04-01T00:29:07;17.42;54.47
65478;SHT31;53678;39.642;22.430;2023-04-01T00:31:33;17.39;54.38
65478;SHT31;53678;39.642;22.430;2023-04-01T00:33:59;17.57;53.80
65478;SHT31;53678;39.642;22.430;2023-04-01T00:36:25;17.52;53.78
65478;SHT31;53678;39.642;22.430;2023-04-01T00:38:50;17.45;53.89
65478;SHT31;53678;39.642;22.430;2023-04-01T00:41:18;17.28;54.30
65478;SHT31;53678;39.642;22.430;2023-04-01T00:43:47;17.31;54.31
65478;SHT31;53678;39.642;22.430;2023-04-01T00:46:13;17.26;54.49
65478;SHT31;53678;39.642;22.430;2023-04-01T00:48:44;17.36;54.17
65478;SHT31;53678;39.642;22.430;2023-04-01T00:51:14;17.35;54.01
65478;SHT31;53678;39.642;22.430;2023-04-01T00:53:45;17.25;54.21
65478;SHT31;53678;39.642;22.430;2023-04-01T00:56:18;17.31;54.14
65478;SHT31;53678;39.642;22.430;2023-04-01T00:58:50;17.38;54.02
65478;SHT31;53678;39.642;22.430;2023-04-01T01:01:17;17.25;54.21
65478;SHT31;53678;39.642;22.430;2023-04-01T01:03:42;17.38;54.05
65478;SHT31;53678;39.642;22.430;2023-04-01T01:12:13;17.39;54.08
65478;SHT31;53678;39.642;22.430;2023-04-01T01:18:06;17.36;54.45
65478;SHT31;53678;39.642;22.430;2023-04-01T01:20:42;17.26;54.64
65478;SHT31;53678;39.642;22.430;2023-04-01T01:37:01;17.18;55.22
65478;SHT31;53678;39.642;22.430;2023-04-01T01:39:31;17.07;55.53
65478;SHT31;53678;39.642;22.430;2023-04-01T01:42:04;17.14;55.60
65478;SHT31;53678;39.642;22.430;2023-04-01T01:44:32;17.02;55.73
65478;SHT31;53678;39.642;22.430;2023-04-01T01:46:59;17.10;55.70
65478;SHT31;53678;39.642;22.430;2023-04-01T01:49:27;17.08;55.74
65478;SHT31;53678;39.642;22.430;2023-04-01T01:51:53;16.98;56.10
65478;SHT31;53678;39.642;22.430;2023-04-01T01:54:18;16.94;56.25
65478;SHT31;53678;39.642;22.430;2023-04-01T01:56:47;17.00;56.18
65478;SHT31;53678;39.642;22.430;2023-04-01T01:59:16;16.98;56.39
65478;SHT31;53678;39.642;22.430;2023-04-01T02:01:48;16.91;56.61
65478;SHT31;53678;39.642;22.430;2023-04-01T02:04:15;16.78;56.90
65478;SHT31;53678;39.642;22.430;2023-04-01T02:06:47;16.71;57.13
65478;SHT31;53678;39.642;22.430;2023-04-01T02:09:15;16.74;57.15
65478;SHT31;53678;39.642;22.430;2023-04-01T02:11:47;16.73;57.37
65478;SHT31;53678;39.642;22.430;2023-04-01T02:14:17;16.73;57.39
65478;SHT31;53678;39.642;22.430;2023-04-01T02:17:09;16.74;57.26
65478;SHT31;53678;39.642;22.430;2023-04-01T02:19:38;16.68;57.33
65478;SHT31;53678;39.642;22.430;2023-04-01T02:22:08;16.61;57.64
65478;SHT31;53678;39.642;22.430;2023-04-01T02:24:38;16.63;57.62
65478;SHT31;53678;39.642;22.430;2023-04-01T02:27:04;16.68;57.59
65478;SHT31;53678;39.642;22.430;2023-04-01T02:29:31;16.68;57.53
65478;SHT31;53678;39.642;22.430;2023-04-01T02:31:58;16.52;58.10
65478;SHT31;53678;39.642;22.430;2023-04-01T02:34:25;16.59;58.13
65478;SHT31;53678;39.642;22.430;2023-04-01T02:36:51;16.50;58.28
65478;SHT31;53678;39.642;22.430;2023-04-01T02:39:18;16.49;58.45
65478;SHT31;53678;39.642;22.430;2023-04-01T02:41:45;16.46;58.44
65478;SHT31;53678;39.642;22.430;2023-04-01T02:44:12;16.47;58.41
65478;SHT31;53678;39.642;22.430;2023-04-01T02:46:38;16.39;58.69
65478;SHT31;53678;39.642;22.430;2023-04-01T02:49:04;16.36;58.88
65478;SHT31;53678;39.642;22.430;2023-04-01T02:51:30;16.32;58.97
65478;SHT31;53678;39.642;22.430;2023-04-01T02:53:56;16.32;58.69
65478;SHT31;53678;39.642;22.430;2023-04-01T02:56:22;16.36;58.54
65478;SHT31;53678;39.642;22.430;2023-04-01T02:58:48;16.36;58.39
65478;SHT31;53678;39.642;22.430;2023-04-01T03:01:13;16.29;58.66
65478;SHT31;53678;39.642;22.430;2023-04-01T03:03:39;16.32;58.33
65478;SHT31;53678;39.642;22.430;2023-04-01T03:06:06;16.27;58.62
65478;SHT31;53678;39.642;22.430;2023-04-01T03:08:33;16.26;58.76
65478;SHT31;53678;39.642;22.430;2023-04-01T03:10:59;16.25;58.78
65478;SHT31;53678;39.642;22.430;2023-04-01T03:13:25;16.32;58.54
65478;SHT31;53678;39.642;22.430;2023-04-01T03:15:51;16.27;58.58
65478;SHT31;53678;39.642;22.430;2023-04-01T03:18:17;16.27;58.63
65478;SHT31;53678;39.642;22.430;2023-04-01T03:20:42;16.26;58.91
65478;SHT31;53678;39.642;22.430;2023-04-01T03:23:09;16.04;59.49
65478;SHT31;53678;39.642;22.430;2023-04-01T03:25:35;16.15;59.22
65478;SHT31;53678;39.642;22.430;2023-04-01T03:28:02;16.01;59.60
65478;SHT31;53678;39.642;22.430;2023-04-01T03:30:28;15.88;59.98
65478;SHT31;53678;39.642;22.430;2023-04-01T03:32:57;16.04;59.88
65478;SHT31;53678;39.642;22.430;2023-04-01T03:35:23;15.62;62.64
65478;SHT31;53678;39.642;22.430;2023-04-01T03:37:51;15.09;64.42
65478;SHT31;53678;39.642;22.430;2023-04-01T03:40:17;14.79;65.19
65478;SHT31;53678;39.642;22.430;2023-04-01T03:42:43;14.54;65.71
65478;SHT31;53678;39.642;22.430;2023-04-01T03:45:09;14.44;66.16
65478;SHT31;53678;39.642;22.430;2023-04-01T03:47:35;14.31;66.60
65478;SHT31;53678;39.642;22.430;2023-04-01T03:50:01;14.34;66.60
65478;SHT31;53678;39.642;22.430;2023-04-01T03:52:27;14.40;66.38
65478;SHT31;53678;39.642;22.430;2023-04-01T03:54:52;14.35;66.48
65478;SHT31;53678;39.642;22.430;2023-04-01T03:57:19;14.34;66.38
65478;SHT31;53678;39.642;22.430;2023-04-01T03:59:44;14.28;66.48
65478;SHT31;53678;39.642;22.430;2023-04-01T04:02:10;14.28;66.39
65478;SHT31;53678;39.642;22.430;2023-04-01T04:04:36;14.18;66.94
65478;SHT31;53678;39.642;22.430;2023-04-01T04:07:03;14.17;67.17
65478;SHT31;53678;39.642;22.430;2023-04-01T04:09:37;14.11;67.13
65478;SHT31;53678;39.642;22.430;2023-04-01T04:12:03;14.10;67.44
65478;SHT31;53678;39.642;22.430;2023-04-01T04:14:31;14.16;67.20
65478;SHT31;53678;39.642;22.430;2023-04-01T04:16:57;14.24;66.79
65478;SHT31;53678;39.642;22.430;2023-04-01T04:19:23;14.31;67.05
65478;SHT31;53678;39.642;22.430;2023-04-01T04:21:49;14.45;66.27
65478;SHT31;53678;39.642;22.430;2023-04-01T04:24:15;14.35;66.55
65478;SHT31;53678;39.642;22.430;2023-04-01T04:26:59;14.01;67.85
65478;SHT31;53678;39.642;22.430;2023-04-01T04:29:25;13.65;69.01
65478;SHT31;53678;39.642;22.430;2023-04-01T04:31:51;13.32;70.12
65478;SHT31;53678;39.642;22.430;2023-04-01T04:34:18;13.43;69.81
65478;SHT31;53678;39.642;22.430;2023-04-01T04:36:44;13.62;69.55
65478;SHT31;53678;39.642;22.430;2023-04-01T04:39:09;13.65;69.36
65478;SHT31;53678;39.642;22.430;2023-04-01T04:41:37;13.74;69.15
65478;SHT31;53678;39.642;22.430;2023-04-01T04:44:04;13.76;69.05
65478;SHT31;53678;39.642;22.430;2023-04-01T04:46:31;13.59;69.52
65478;SHT31;53678;39.642;22.430;2023-04-01T04:49:06;13.72;69.03
65478;SHT31;53678;39.642;22.430;2023-04-01T04:51:32;13.86;68.59
65478;SHT31;53678;39.642;22.430;2023-04-01T04:54:05;13.80;69.06
65478;SHT31;53678;39.642;22.430;2023-04-01T04:56:51;13.99;68.54
65478;SHT31;53678;39.642;22.430;2023-04-01T04:59:17;14.14;68.28
65478;SHT31;53678;39.642;22.430;2023-04-01T05:01:54;14.32;67.62
65478;SHT31;53678;39.642;22.430;2023-04-01T05:04:20;14.44;67.49
65478;SHT31;53678;39.642;22.430;2023-04-01T05:06:46;14.59;66.82
65478;SHT31;53678;39.642;22.430;2023-04-01T05:09:12;14.69;66.42
65478;SHT31;53678;39.642;22.430;2023-04-01T05:11:39;14.80;66.35
65478;SHT31;53678;39.642;22.430;2023-04-01T05:14:05;14.89;66.19
65478;SHT31;53678;39.642;22.430;2023-04-01T05:16:32;14.71;66.31
65478;SHT31;53678;39.642;22.430;2023-04-01T05:18:58;14.95;65.76
65478;SHT31;53678;39.642;22.430;2023-04-01T05:21:24;14.65;66.79
65478;SHT31;53678;39.642;22.430;2023-04-01T05:23:52;14.24;68.32
65478;SHT31;53678;39.642;22.430;2023-04-01T05:26:18;14.38;68.29
65478;SHT31;53678;39.642;22.430;2023-04-01T05:28:44;14.42;67.97
65478;SHT31;53678;39.642;22.430;2023-04-01T05:31:09;14.82;66.91
65478;SHT31;53678;39.642;22.430;2023-04-01T05:33:40;14.95;67.68
65478;SHT31;53678;39.642;22.430;2023-04-01T05:36:12;16.53;63.54
65478;SHT31;53678;39.642;22.430;2023-04-01T05:38:38;17.01;61.09
65478;SHT31;53678;39.642;22.430;2023-04-01T05:41:07;16.68;62.15
65478;SHT31;53678;39.642;22.430;2023-04-01T05:43:37;18.24;57.86
65478;SHT31;53678;39.642;22.430;2023-04-01T05:46:23;18.21;58.21
65478;SHT31;53678;39.642;22.430;2023-04-01T05:48:55;18.41;57.88
65478;SHT31;53678;39.642;22.430;2023-04-01T05:51:23;19.50;55.22
65478;SHT31;53678;39.642;22.430;2023-04-01T05:53:50;20.55;52.82
65478;SHT31;53678;39.642;22.430;2023-04-01T05:56:17;21.80;50.56
65478;SHT31;53678;39.642;22.430;2023-04-01T05:58:51;23.17;45.94
65478;SHT31;53678;39.642;22.430;2023-04-01T06:01:18;23.45;44.80
65478;SHT31;53678;39.642;22.430;2023-04-01T06:03:44;23.78;42.97
65478;SHT31;53678;39.642;22.430;2023-04-01T06:06:14;23.82;42.68
65478;SHT31;53678;39.642;22.430;2023-04-01T06:08:41;23.81;42.73
65478;SHT31;53678;39.642;22.430;2023-04-01T06:20:27;20.61;51.60
65478;SHT31;53678;39.642;22.430;2023-04-01T06:54:21;20.12;53.12
65478;SHT31;53678;39.642;22.430;2023-04-01T06:57:30;20.44;50.98
65478;SHT31;53678;39.642;22.430;2023-04-01T07:00:01;21.13;49.52
65478;SHT31;53678;39.642;22.430;2023-04-01T07:02:42;20.99;49.42
65478;SHT31;53678;39.642;22.430;2023-04-01T07:05:11;21.63;48.04
65478;SHT31;53678;39.642;22.430;2023-04-01T07:07:42;21.50;47.92
65478;SHT31;53678;39.642;22.430;2023-04-01T07:10:17;21.22;48.57
65478;SHT31;53678;39.642;22.430;2023-04-01T07:13:05;21.57;48.69
65478;SHT31;53678;39.642;22.430;2023-04-01T07:15:43;22.02;46.85
65478;SHT31;53678;39.642;22.430;2023-04-01T07:18:45;21.96;47.88
65478;SHT31;53678;39.642;22.430;2023-04-01T07:21:30;21.97;49.44
65478;SHT31;53678;39.642;22.430;2023-04-01T07:26:56;21.93;49.00
65478;SHT31;53678;39.642;22.430;2023-04-01T07:29:26;22.79;47.77
65478;SHT31;53678;39.642;22.430;2023-04-01T07:37:25;23.23;45.19
65478;SHT31;53678;39.642;22.430;2023-04-01T07:45:31;23.40;45.20
65478;SHT31;53678;39.642;22.430;2023-04-01T07:50:41;23.18;45.14
65478;SHT31;53678;39.642;22.430;2023-04-01T07:53:34;23.17;45.74
65478;SHT31;53678;39.642;22.430;2023-04-01T07:56:12;23.44;45.33
65478;SHT31;53678;39.642;22.430;2023-04-01T08:07:19;23.16;46.16
65478;SHT31;53678;39.642;22.430;2023-04-01T08:16:49;22.42;47.33
65478;SHT31;53678;39.642;22.430;2023-04-01T08:19:36;22.77;46.95
65478;SHT31;53678;39.642;22.430;2023-04-01T08:22:15;22.75;47.02
65478;SHT31;53678;39.642;22.430;2023-04-01T08:24:45;22.73;48.03
65478;SHT31;53678;39.642;22.430;2023-04-01T08:27:31;23.11;47.42
65478;SHT31;53678;39.642;22.430;2023-04-01T08:32:39;23.69;46.01
65478;SHT31;53678;39.642;22.430;2023-04-01T08:35:21;23.76;45.00
65478;SHT31;53678;39.642;22.430;2023-04-01T08:37:53;24.10;44.41
65478;SHT31;53678;39.642;22.430;2023-04-01T08:43:35;23.78;45.35
65478;SHT31;53678;39.642;22.430;2023-04-01T09:00:51;24.01;44.50
65478;SHT31;53678;39.642;22.430;2023-04-01T09:40:26;23.21;44.81
65478;SHT31;53678;39.642;22.430;2023-04-01T09:46:12;23.86;43.65
65478;SHT31;53678;39.642;22.430;2023-04-01T10:19:39;24.23;43.38
65478;SHT31;53678;39.642;22.430;2023-04-01T10:22:24;24.36;42.73
65478;SHT31;53678;39.642;22.430;2023-04-01T10:36:54;24.82;42.00
65478;SHT31;53678;39.642;22.430;2023-04-01T10:51:30;25.08;41.75
65478;SHT31;53678;39.642;22.430;2023-04-01T10:56:50;25.02;41.39
65478;SHT31;53678;39.642;22.430;2023-04-01T11:00:10;24.82;42.00
65478;SHT31;53678;39.642;22.430;2023-04-01T11:08:28;24.61;41.92
65478;SHT31;53678;39.642;22.430;2023-04-01T11:28:25;25.56;40.84
65478;SHT31;53678;39.642;22.430;2023-04-01T11:42:20;25.47;40.24
65478;SHT31;53678;39.642;22.430;2023-04-01T11:45:15;25.50;39.97
65478;SHT31;53678;39.642;22.430;2023-04-01T11:53:56;25.43;40.45
65478;SHT31;53678;39.642;22.430;2023-04-01T11:59:39;25.38;39.97
65478;SHT31;53678;39.642;22.430;2023-04-01T12:07:40;25.43;40.40
65478;SHT31;53678;39.642;22.430;2023-04-01T12:10:19;25.16;40.08
65478;SHT31;53678;39.642;22.430;2023-04-01T12:13:04;25.28;40.01
65478;SHT31;53678;39.642;22.430;2023-04-01T12:16:07;25.30;39.58
65478;SHT31;53678;39.642;22.430;2023-04-01T12:18:36;25.18;40.46
65478;SHT31;53678;39.642;22.430;2023-04-01T12:21:27;25.19;40.17
65478;SHT31;53678;39.642;22.430;2023-04-01T12:24:25;25.12;40.49
65478;SHT31;53678;39.642;22.430;2023-04-01T12:35:30;25.05;40.83
65478;SHT31;53678;39.642;22.430;2023-04-01T12:37:49;25.12;40.66
65478;SHT31;53678;39.642;22.430;2023-04-01T12:46:16;24.96;40.65
65478;SHT31;53678;39.642;22.430;2023-04-01T12:49:22;24.96;40.54
65478;SHT31;53678;39.642;22.430;2023-04-01T13:00:25;24.94;41.18
65478;SHT31;53678;39.642;22.430;2023-04-01T13:08:04;24.68;41.63
65478;SHT31;53678;39.642;22.430;2023-04-01T13:19:00;24.60;41.10
65478;SHT31;53678;39.642;22.430;2023-04-01T13:35:46;24.20;42.21
65478;SHT31;53678;39.642;22.430;2023-04-01T14:00:19;24.26;42.65
65478;SHT31;53678;39.642;22.430;2023-04-01T14:08:20;24.03;42.69
65478;SHT31;53678;39.642;22.430;2023-04-01T14:27:44;23.99;42.73
65478;SHT31;53678;39.642;22.430;2023-04-01T14:39:07;23.88;42.91
65478;SHT31;53678;39.642;22.430;2023-04-01T14:47:50;23.90;42.95
65478;SHT31;53678;39.642;22.430;2023-04-01T14:50:19;23.88;43.16
65478;SHT31;53678;39.642;22.430;2023-04-01T14:52:55;23.76;43.16
65478;SHT31;53678;39.642;22.430;2023-04-01T14:56:26;23.59;43.37
65478;SHT31;53678;39.642;22.430;2023-04-01T14:58:23;23.57;43.72
65478;SHT31;53678;39.642;22.430;2023-04-01T15:03:32;23.64;42.83
65478;SHT31;53678;39.642;22.430;2023-04-01T15:06:21;23.68;42.89
65478;SHT31;53678;39.642;22.430;2023-04-01T15:39:01;23.17;42.97
65478;SHT31;53678;39.642;22.430;2023-04-01T15:52:47;22.80;42.73
65478;SHT31;53678;39.642;22.430;2023-04-01T15:55:20;22.69;43.10
65478;SHT31;53678;39.642;22.430;2023-04-01T16:03:20;22.35;43.93
65478;SHT31;53678;39.642;22.430;2023-04-01T16:22:38;21.94;45.11
65478;SHT31;53678;39.642;22.430;2023-04-01T16:28:30;21.83;45.40
65478;SHT31;53678;39.642;22.430;2023-04-01T16:31:03;21.74;45.25
65478;SHT31;53678;39.642;22.430;2023-04-01T16:36:28;21.62;45.20
65478;SHT31;53678;39.642;22.430;2023-04-01T16:39:22;21.46;45.30
65478;SHT31;53678;39.642;22.430;2023-04-01T16:47:23;21.45;44.74
65478;SHT31;53678;39.642;22.430;2023-04-01T16:49:59;21.31;45.15
65478;SHT31;53678;39.642;22.430;2023-04-01T16:55:00;21.21;45.55
65478;SHT31;53678;39.642;22.430;2023-04-01T17:02:51;21.11;46.37
65478;SHT31;53678;39.642;22.430;2023-04-01T17:05:18;21.06;46.44
65478;SHT31;53678;39.642;22.430;2023-04-01T17:15:39;20.47;48.18
65478;SHT31;53678;39.642;22.430;2023-04-01T17:18:26;20.39;48.68
65478;SHT31;53678;39.642;22.430;2023-04-01T17:21:07;20.19;49.30
65478;SHT31;53678;39.642;22.430;2023-04-01T17:23:52;20.15;49.25
65478;SHT31;53678;39.642;22.430;2023-04-01T17:26:40;20.16;48.59
65478;SHT31;53678;39.642;22.430;2023-04-01T17:32:09;20.08;48.67
65478;SHT31;53678;39.642;22.430;2023-04-01T17:42:42;19.92;48.24
65478;SHT31;53678;39.642;22.430;2023-04-01T17:45:21;19.89;48.23
65478;SHT31;53678;39.642;22.430;2023-04-01T17:51:12;19.78;48.37
65478;SHT31;53678;39.642;22.430;2023-04-01T17:59:21;19.79;47.94
65478;SHT31;53678;39.642;22.430;2023-04-01T18:08:02;19.82;48.23
65478;SHT31;53678;39.642;22.430;2023-04-01T18:16:00;19.85;48.19
65478;SHT31;53678;39.642;22.430;2023-04-01T18:21:47;19.76;48.49
65478;SHT31;53678;39.642;22.430;2023-04-01T18:24:24;19.65;48.91
65478;SHT31;53678;39.642;22.430;2023-04-01T18:27:16;19.59;48.90
65478;SHT31;53678;39.642;22.430;2023-04-01T18:29:59;19.58;48.98
65478;SHT31;53678;39.642;22.430;2023-04-01T18:35:48;19.24;49.40
65478;SHT31;53678;39.642;22.430;2023-04-01T18:38:23;19.23;49.50
65478;SHT31;53678;39.642;22.430;2023-04-01T18:41:15;19.26;49.42
65478;SHT31;53678;39.642;22.430;2023-04-01T18:47:20;19.21;49.46
65478;SHT31;53678;39.642;22.430;2023-04-01T18:50:02;19.32;48.89
65478;SHT31;53678;39.642;22.430;2023-04-01T18:52:51;19.28;48.93
65478;SHT31;53678;39.642;22.430;2023-04-01T18:55:35;19.10;49.22
65478;SHT31;53678;39.642;22.430;2023-04-01T19:01:11;18.99;49.52
65478;SHT31;53678;39.642;22.430;2023-04-01T19:03:48;18.80;50.06
65478;SHT31;53678;39.642;22.430;2023-04-01T19:06:23;18.79;49.97
65478;SHT31;53678;39.642;22.430;2023-04-01T19:08:52;18.77;50.07
65478;SHT31;53678;39.642;22.430;2023-04-01T19:14:12;18.65;50.49
65478;SHT31;53678;39.642;22.430;2023-04-01T19:16:56;18.47;50.93
65478;SHT31;53678;39.642;22.430;2023-04-01T19:19:41;18.30;51.56
65478;SHT31;53678;39.642;22.430;2023-04-01T19:22:18;18.31;51.54
65478;SHT31;53678;39.642;22.430;2023-04-01T19:24:49;18.30;51.54
65478;SHT31;53678;39.642;22.430;2023-04-01T19:35:26;18.17;51.73
65478;SHT31;53678;39.642;22.430;2023-04-01T19:40:54;18.22;51.31
65478;SHT31;53678;39.642;22.430;2023-04-01T19:43:35;18.25;51.18
65478;SHT31;53678;39.642;22.430;2023-04-01T19:52:04;18.32;51.15
65478;SHT31;53678;39.642;22.430;2023-04-01T19:55:06;18.35;50.73
65478;SHT31;53678;39.642;22.430;2023-04-01T20:00:24;18.58;50.22
65478;SHT31;53678;39.642;22.430;2023-04-01T20:03:04;18.53;50.47
65478;SHT31;53678;39.642;22.430;2023-04-01T20:12:33;18.38;51.14
65478;SHT31;53678;39.642;22.430;2023-04-01T20:14:51;18.47;50.97
65478;SHT31;53678;39.642;22.430;2023-04-01T20:50:52;17.98;51.67
65478;SHT31;53678;39.642;22.430;2023-04-01T21:04:43;18.20;50.91
65478;SHT31;53678;39.642;22.430;2023-04-01T21:10:41;18.07;51.25
65478;SHT31;53678;39.642;22.430;2023-04-01T21:16:14;18.00;51.26
65478;SHT31;53678;39.642;22.430;2023-04-01T21:38:11;18.34;49.91
65478;SHT31;53678;39.642;22.430;2023-04-01T21:54:58;18.25;49.87
65478;SHT31;53678;39.642;22.430;2023-04-01T21:58:15;18.21;50.41
65478;SHT31;53678;39.642;22.430;2023-04-01T22:00:43;18.10;51.62
65478;SHT31;53678;39.642;22.430;2023-04-01T22:06:22;18.10;52.33
65478;SHT31;53678;39.642;22.430;2023-04-01T22:12:10;17.79;53.13
65478;SHT31;53678;39.642;22.430;2023-04-01T22:14:50;17.63;53.56
65478;SHT31;53678;39.642;22.430;2023-04-01T22:17:29;17.69;53.65
65478;SHT31;53678;39.642;22.430;2023-04-01T22:20:14;17.60;54.02
65478;SHT31;53678;39.642;22.430;2023-04-01T22:25:45;17.53;53.85
65478;SHT31;53678;39.642;22.430;2023-04-01T22:28:25;17.40;54.27
65478;SHT31;53678;39.642;22.430;2023-04-01T22:30:59;17.39;54.16
65478;SHT31;53678;39.642;22.430;2023-04-01T22:43:47;17.54;53.22
65478;SHT31;53678;39.642;22.430;2023-04-01T22:49:38;17.74;52.73
65478;SHT31;53678;39.642;22.430;2023-04-01T22:55:13;17.66;53.50
65478;SHT31;53678;39.642;22.430;2023-04-01T22:57:57;17.53;54.28
65478;SHT31;53678;39.642;22.430;2023-04-01T23:00:36;17.25;55.87
65478;SHT31;53678;39.642;22.430;2023-04-01T23:05:50;16.75;57.21
65478;SHT31;53678;39.642;22.430;2023-04-01T23:11:27;16.47;57.97
65478;SHT31;53678;39.642;22.430;2023-04-01T23:14:02;16.44;57.87
65478;SHT31;53678;39.642;22.430;2023-04-01T23:16:45;16.53;57.63
65478;SHT31;53678;39.642;22.430;2023-04-01T23:19:23;16.37;58.17
65478;SHT31;53678;39.642;22.430;2023-04-01T23:22:08;16.57;57.41
65478;SHT31;53678;39.642;22.430;2023-04-01T23:27:41;16.60;57.23
65478;SHT31;53678;39.642;22.430;2023-04-01T23:33:28;15.87;59.45
65478;SHT31;53678;39.642;22.430;2023-04-01T23:38:38;15.69;60.75
65478;SHT31;53678;39.642;22.430;2023-04-01T23:41:05;15.79;59.87
65478;SHT31;53678;39.642;22.430;2023-04-01T23:43:36;15.85;60.09
65478;SHT31;53678;39.642;22.430;2023-04-01T23:46:03;15.84;59.99
65478;SHT31;53678;39.642;22.430;2023-04-01T23:48:43;15.89;60.01
65478;SHT31;53678;39.642;22.430;2023-04-01T23:51:28;15.96;59.60
65478;SHT31;53678;39.642;22.430;2023-04-01T23:54:18;16.01;59.43
65478;SHT31;53678;39.642;22.430;2023-04-01T23:56:53;16.06;59.27
65478;SHT31;53678;39.642;22.430;2023-04-01T23:59:24;16.12;59.30
